Time;durP1;ratioP1;P1;durP2;ratioP2;P2;SDS_P1;SDS_P2;PMS_P1;PMS_P2;Temp;Humidity;BMP_temperature;BMP_pressure;BME280_temperature;BME280_humidity;BME280_pressure;Samples;Min_cycle;Max_cycle;Signal;HPM_P1;HPM_P2
2022/11/19 00:01:45;;;;;;;0.50;0.50;;;;;;;14.71;100.00;98840.81;5053053;28;20741;-76
2022/11/19 00:04:12;;;;;;;0.60;0.60;;;;;;;14.64;100.00;98860.09;5052990;28;20753;-76
2022/11/19 00:06:38;;;;;;;0.60;0.60;;;;;;;14.54;100.00;98850.75;5052913;28;20199;-76
2022/11/19 00:09:09;;;;;;;0.60;0.60;;;;;;;14.50;100.00;98839.50;5052754;28;20195;-76
2022/11/19 00:14:20;;;;;;;0.70;0.70;;;;;;;14.35;100.00;98838.06;5052597;28;20230;-76
2022/11/19 00:16:47;;;;;;;0.85;0.85;;;;;;;14.19;100.00;98812.31;5052875;28;20198;-76
2022/11/19 00:19:14;;;;;;;0.60;0.60;;;;;;;14.41;100.00;98854.50;5052799;28;20675;-76
2022/11/19 00:21:44;;;;;;;0.60;0.60;;;;;;;14.39;100.00;98867.56;5052466;28;20693;-76
2022/11/19 00:24:12;;;;;;;0.52;0.52;;;;;;;14.20;100.00;98873.97;5017741;28;20211;-76
2022/11/19 00:26:39;;;;;;;0.50;0.50;;;;;;;14.07;100.00;98860.31;5052284;28;20739;-76
2022/11/19 00:29:06;;;;;;;0.50;0.50;;;;;;;13.93;100.00;98862.31;5052654;28;20199;-76
2022/11/19 00:31:33;;;;;;;0.60;0.60;;;;;;;13.84;100.00;98852.06;5017620;28;20337;-76
2022/11/19 00:33:59;;;;;;;1.02;1.02;;;;;;;13.82;100.00;98870.34;5052405;28;20247;-76
2022/11/19 00:36:26;;;;;;;0.60;0.60;;;;;;;13.47;100.00;98850.97;5033670;28;20199;-76
2022/11/19 00:38:54;;;;;;;0.80;0.80;;;;;;;13.20;100.00;98827.09;5052378;28;20203;-75
2022/11/19 00:41:22;;;;;;;0.60;0.60;;;;;;;13.28;100.00;98845.19;5052538;28;20202;-77
2022/11/19 00:43:49;;;;;;;0.60;0.60;;;;;;;13.29;100.00;98841.72;5052637;28;20203;-76
2022/11/19 00:46:18;;;;;;;0.98;0.98;;;;;;;13.35;100.00;98842.47;5052241;28;20196;-76
2022/11/19 00:48:45;;;;;;;0.60;0.60;;;;;;;13.33;100.00;98846.00;5052112;28;20204;-76
2022/11/19 00:51:12;;;;;;;0.60;0.60;;;;;;;13.25;100.00;98829.63;5052115;28;20196;-76
2022/11/19 00:53:39;;;;;;;0.60;0.60;;;;;;;13.18;100.00;98849.69;5051907;28;20234;-76
2022/11/19 00:56:11;;;;;;;0.60;0.60;;;;;;;13.12;100.00;98848.94;5051827;28;20199;-76
2022/11/19 00:58:40;;;;;;;0.60;0.60;;;;;;;13.07;100.00;98856.75;5052364;28;20199;-76
2022/11/19 01:01:07;;;;;;;0.98;0.98;;;;;;;13.15;100.00;98870.56;5051736;28;20203;-76
2022/11/19 01:03:34;;;;;;;0.60;0.60;;;;;;;13.23;100.00;98878.25;5051974;28;20231;-76
2022/11/19 01:06:01;;;;;;;0.52;0.52;;;;;;;13.34;100.00;98884.16;5033017;28;20199;-75
2022/11/19 01:08:28;;;;;;;0.63;0.63;;;;;;;13.40;100.00;98884.94;5051977;28;20192;-76
2022/11/19 01:10:55;;;;;;;0.55;0.55;;;;;;;13.39;100.00;98871.91;5051897;28;20204;-76
2022/11/19 01:13:34;;;;;;;0.60;0.60;;;;;;;13.52;100.00;98902.09;5051939;28;20196;-76
2022/11/19 01:16:05;;;;;;;0.60;0.60;;;;;;;13.52;100.00;98917.69;5020610;28;20210;-76
2022/11/19 01:18:32;;;;;;;0.60;0.60;;;;;;;13.55;100.00;98937.66;5051817;28;20230;-76
2022/11/19 01:20:59;;;;;;;0.60;0.60;;;;;;;13.62;100.00;98968.78;5051592;28;20195;-76
2022/11/19 01:23:26;;;;;;;0.70;0.70;;;;;;;13.57;100.00;98977.53;5051520;28;20218;-76
2022/11/19 01:25:53;;;;;;;0.50;0.50;;;;;;;13.55;100.00;98971.50;5051416;28;20195;-76
2022/11/19 01:28:20;;;;;;;0.60;0.60;;;;;;;13.54;100.00;98993.22;5051848;28;20203;-75
2022/11/19 01:30:47;;;;;;;0.80;0.80;;;;;;;13.63;100.00;99003.47;5051829;28;20199;-76
2022/11/19 01:33:15;;;;;;;0.60;0.60;;;;;;;13.69;100.00;99000.81;5050988;28;20623;-76
2022/11/19 01:35:42;;;;;;;0.70;0.70;;;;;;;13.59;100.00;99018.28;5051496;28;20199;-76
2022/11/19 01:38:09;;;;;;;0.65;0.65;;;;;;;13.66;100.00;99016.50;5016106;28;20206;-75
2022/11/19 01:40:42;;;;;;;0.60;0.60;;;;;;;13.71;100.00;99020.72;5051373;28;20578;-76
2022/11/19 01:43:13;;;;;;;0.93;0.93;;;;;;;13.70;100.00;99028.56;5051106;28;20214;-75
2022/11/19 01:45:42;;;;;;;1.40;1.30;;;;;;;13.67;100.00;99029.47;5051000;28;20206;-76
2022/11/19 01:48:14;;;;;;;0.60;0.60;;;;;;;13.72;100.00;99052.84;5051039;28;20202;-76
2022/11/19 01:50:53;;;;;;;0.60;0.60;;;;;;;13.75;100.00;99065.84;5051388;28;20191;-76
2022/11/19 01:53:22;;;;;;;0.60;0.60;;;;;;;13.71;100.00;99064.16;5050995;28;20195;-76
2022/11/19 01:55:50;;;;;;;0.73;0.73;;;;;;;13.68;100.00;99080.69;5050951;28;20207;-76
2022/11/19 01:58:21;;;;;;;0.60;0.60;;;;;;;13.63;100.00;99086.81;5050736;28;20647;-76
2022/11/19 02:00:48;;;;;;;0.70;0.70;;;;;;;13.59;100.00;99074.75;5051129;28;20199;-76
2022/11/19 02:03:16;;;;;;;0.70;0.70;;;;;;;13.60;100.00;99092.94;5051058;28;20235;-76
2022/11/19 02:05:43;;;;;;;1.02;0.95;;;;;;;13.52;100.00;99089.56;5050920;28;20195;-75
2022/11/19 02:08:37;;;;;;;1.00;1.00;;;;;;;13.64;100.00;99085.97;5050913;28;20634;-76
2022/11/19 02:11:26;;;;;;;0.80;0.80;;;;;;;13.40;100.00;99064.56;5050677;28;20191;-76
2022/11/19 02:14:03;;;;;;;0.73;0.73;;;;;;;13.60;100.00;99102.50;5050842;28;20231;-76
2022/11/19 02:16:37;;;;;;;0.57;0.57;;;;;;;13.63;100.00;99107.66;5050980;28;20214;-76
2022/11/19 02:19:18;;;;;;;0.70;0.70;;;;;;;13.56;100.00;99101.69;5048129;28;20194;-76
2022/11/19 02:21:56;;;;;;;0.70;0.70;;;;;;;13.52;100.00;99094.78;5050881;28;20268;-77
2022/11/19 02:24:47;;;;;;;0.95;0.95;;;;;;;13.61;100.00;99110.31;5050749;28;20199;-76
2022/11/19 02:27:49;;;;;;;0.50;0.50;;;;;;;13.47;100.00;99095.72;5018119;28;20600;-77
2022/11/19 02:30:19;;;;;;;0.50;0.50;;;;;;;13.45;100.00;99121.78;5050928;28;20592;-76
2022/11/19 02:32:56;;;;;;;0.65;0.65;;;;;;;13.50;100.00;99111.31;5051130;28;20200;-76
2022/11/19 02:35:31;;;;;;;5.78;1.63;;;;;;;13.31;100.00;99116.75;5053382;28;20227;-77
2022/11/19 02:38:03;;;;;;;1.05;1.05;;;;;;;13.39;100.00;99127.94;5054993;28;20785;-77
2022/11/19 02:40:36;;;;;;;0.50;0.50;;;;;;;13.36;100.00;99125.38;5055113;28;20203;-77
2022/11/19 02:43:14;;;;;;;0.65;0.65;;;;;;;13.44;100.00;99135.69;5054605;28;20198;-77
2022/11/19 02:45:47;;;;;;;0.60;0.60;;;;;;;13.31;100.00;99140.16;5054536;28;20234;-77
2022/11/19 02:48:17;;;;;;;0.60;0.60;;;;;;;13.25;100.00;99137.66;5054468;28;20200;-77
2022/11/19 02:50:51;;;;;;;0.40;0.40;;;;;;;13.23;100.00;99148.97;5054576;28;20207;-77
2022/11/19 02:53:18;;;;;;;2.15;1.55;;;;;;;13.01;100.00;99144.81;5020055;28;20206;-77
2022/11/19 02:56:09;;;;;;;0.55;0.55;;;;;;;12.88;100.00;99136.25;5054122;28;20219;-77
2022/11/19 03:04:31;;;;;;;0.73;0.73;;;;;;;13.00;100.00;99182.09;5054592;28;20363;-77
2022/11/19 03:07:02;;;;;;;0.70;0.70;;;;;;;12.98;100.00;99189.09;5054263;28;20202;-77
2022/11/19 03:09:31;;;;;;;0.50;0.50;;;;;;;12.98;100.00;99195.16;5054256;28;20211;-77
2022/11/19 03:12:08;;;;;;;0.60;0.60;;;;;;;12.87;100.00;99207.38;5054183;28;20200;-77
2022/11/19 03:17:46;;;;;;;1.08;1.08;;;;;;;12.77;100.00;99226.56;5011832;28;20204;-77
2022/11/19 03:20:21;;;;;;;3.50;2.25;;;;;;;12.83;100.00;99237.78;5012295;28;20669;-77
2022/11/19 03:22:52;;;;;;;1.08;1.08;;;;;;;12.79;100.00;99245.59;5011479;28;20210;-77
2022/11/19 03:25:23;;;;;;;4.38;3.60;;;;;;;12.80;100.00;99242.13;5011747;28;20646;-77
2022/11/19 03:27:54;;;;;;;0.80;0.80;;;;;;;12.80;100.00;99249.94;4978942;28;20205;-77
2022/11/19 03:30:21;;;;;;;2.67;2.58;;;;;;;12.68;100.00;99226.59;5011852;28;20652;-77
2022/11/19 03:32:54;;;;;;;0.60;0.60;;;;;;;12.89;100.00;99257.66;5011299;28;20193;-77
2022/11/19 03:35:26;;;;;;;0.60;0.60;;;;;;;12.45;100.00;99187.75;5011463;28;20256;-76
2022/11/19 03:37:55;;;;;;;0.80;0.80;;;;;;;12.86;100.00;99268.09;5011637;28;20211;-77
2022/11/19 03:40:24;;;;;;;0.60;0.60;;;;;;;12.88;100.00;99261.13;4962532;28;20200;-77
2022/11/19 03:42:54;;;;;;;1.15;1.15;;;;;;;12.98;100.00;99267.13;5011312;28;20197;-77
2022/11/19 03:45:28;;;;;;;0.57;0.57;;;;;;;12.99;100.00;99269.72;5011430;28;20240;-77
2022/11/19 03:47:57;;;;;;;0.60;0.60;;;;;;;12.97;100.00;99276.69;5011339;28;20744;-77
2022/11/19 03:50:33;;;;;;;0.60;0.60;;;;;;;13.01;100.00;99282.72;4962819;28;20340;-77
2022/11/19 03:53:00;;;;;;;0.88;0.88;;;;;;;12.91;100.00;99290.59;5011491;28;20254;-77
2022/11/19 03:55:33;;;;;;;1.08;1.05;;;;;;;13.05;100.00;99293.09;5048192;28;20825;-77
2022/11/19 03:58:03;;;;;;;0.80;0.80;;;;;;;12.96;100.00;99285.34;5053283;28;20203;-78
2022/11/19 04:00:29;;;;;;;0.57;0.57;;;;;;;13.11;100.00;99303.50;5053392;28;20199;-77
2022/11/19 04:02:58;;;;;;;0.50;0.50;;;;;;;13.17;100.00;99298.22;5040799;28;20232;-76
2022/11/19 04:05:24;;;;;;;2.15;2.05;;;;;;;12.73;100.00;99230.91;5033270;28;20665;-77
2022/11/19 04:07:51;;;;;;;0.60;0.60;;;;;;;13.21;100.00;99306.88;5033418;28;20200;-78
2022/11/19 04:10:18;;;;;;;2.15;1.95;;;;;;;13.27;100.00;99323.31;5033241;28;20207;-77
2022/11/19 04:12:45;;;;;;;0.60;0.60;;;;;;;13.32;100.00;99337.16;5033441;28;20200;-77
2022/11/19 04:15:12;;;;;;;0.60;0.60;;;;;;;13.37;100.00;99351.03;5033147;28;20228;-78
2022/11/19 04:17:39;;;;;;;0.60;0.60;;;;;;;13.36;100.00;99322.38;5033214;28;20688;-77
2022/11/19 04:20:09;;;;;;;1.05;1.05;;;;;;;13.49;100.00;99344.81;5032800;28;20204;-78
2022/11/19 04:22:36;;;;;;;0.70;0.70;;;;;;;13.44;100.00;99356.16;5033199;28;20623;-77
2022/11/19 04:25:03;;;;;;;0.90;0.90;;;;;;;13.44;100.00;99350.97;5033300;28;20192;-77
2022/11/19 04:27:30;;;;;;;1.27;1.17;;;;;;;13.31;100.00;99361.47;5033184;28;20227;-77
2022/11/19 04:29:57;;;;;;;0.60;0.60;;;;;;;13.28;100.00;99358.88;4998489;28;20200;-77
2022/11/19 04:32:23;;;;;;;0.60;0.60;;;;;;;12.98;100.00;99325.25;4997730;28;20204;-76
2022/11/19 04:34:50;;;;;;;0.98;0.98;;;;;;;13.26;100.00;99368.47;4997936;28;20236;-77
2022/11/19 04:37:18;;;;;;;0.73;0.73;;;;;;;13.19;100.00;99365.91;5033153;28;20204;-77
2022/11/19 04:39:45;;;;;;;0.80;0.80;;;;;;;13.24;100.00;99374.53;5032969;28;20659;-77
2022/11/19 04:42:12;;;;;;;9.38;1.67;;;;;;;13.25;100.00;99365.84;5032603;28;20581;-77
2022/11/19 04:44:40;;;;;;;3.65;1.50;;;;;;;13.22;100.00;99365.88;5032026;28;20196;-76
2022/11/19 04:47:06;;;;;;;0.63;0.63;;;;;;;13.16;100.00;99360.72;5032109;28;20238;-77
2022/11/19 04:49:33;;;;;;;0.90;0.90;;;;;;;13.30;100.00;99375.38;5032550;28;20201;-76
2022/11/19 04:52:00;;;;;;;0.70;0.70;;;;;;;13.23;100.00;99389.31;5032802;28;20200;-76
2022/11/19 04:54:28;;;;;;;0.60;0.60;;;;;;;13.30;100.00;99405.75;5032662;28;20231;-76
2022/11/19 04:56:55;;;;;;;0.60;0.60;;;;;;;13.10;100.00;99400.66;4997889;28;20204;-76
2022/11/19 04:59:22;;;;;;;0.63;0.63;;;;;;;13.26;100.00;99415.31;5032780;28;20206;-77
2022/11/19 05:01:49;;;;;;;0.60;0.60;;;;;;;13.16;100.00;99392.78;5031716;28;20688;-76
2022/11/19 05:04:15;;;;;;;0.70;0.70;;;;;;;13.29;100.00;99417.91;5031808;28;20196;-77
2022/11/19 05:06:42;;;;;;;0.60;0.60;;;;;;;13.18;100.00;99431.84;5031844;28;20203;-77
2022/11/19 05:09:09;;;;;;;1.13;1.13;;;;;;;13.13;100.00;99428.41;5031952;28;20208;-77
2022/11/19 05:11:37;;;;;;;1.88;1.85;;;;;;;13.16;100.00;99426.63;5031717;28;20595;-76
2022/11/19 05:14:04;;;;;;;0.70;0.70;;;;;;;12.97;100.00;99412.00;5031885;28;20211;-77
2022/11/19 05:16:31;;;;;;;0.60;0.60;;;;;;;13.01;100.00;99439.72;5031980;28;20235;-78
2022/11/19 05:18:58;;;;;;;0.50;0.50;;;;;;;12.69;100.00;99405.19;5031814;28;20203;-83
2022/11/19 05:21:24;;;;;;;0.93;0.93;;;;;;;12.81;100.00;99434.59;5032194;28;20207;-76
2022/11/19 05:23:51;;;;;;;0.55;0.55;;;;;;;12.85;100.00;99454.53;5031130;28;20584;-77
2022/11/19 05:26:18;;;;;;;0.70;0.70;;;;;;;12.90;100.00;99462.31;5031415;28;20204;-77
2022/11/19 05:28:46;;;;;;;2.22;2.13;;;;;;;12.91;100.00;99462.31;5031235;28;20747;-77
2022/11/19 05:31:13;;;;;;;0.60;0.60;;;;;;;13.00;100.00;99477.03;5031582;28;20203;-77
2022/11/19 05:33:40;;;;;;;0.60;0.60;;;;;;;12.98;100.00;99478.78;5031250;28;20664;-77
2022/11/19 05:36:07;;;;;;;0.60;0.60;;;;;;;13.06;100.00;99495.19;5031399;28;20224;-77
2022/11/19 05:38:34;;;;;;;1.42;1.33;;;;;;;13.08;100.00;99488.28;5031308;28;20211;-77
2022/11/19 05:41:01;;;;;;;0.85;0.85;;;;;;;13.14;100.00;99498.69;5031033;28;20208;-77
2022/11/19 05:43:27;;;;;;;0.70;0.70;;;;;;;13.12;100.00;99486.56;4996342;28;20581;-77
2022/11/19 05:45:59;;;;;;;0.60;0.60;;;;;;;13.08;100.00;99475.25;4996103;28;20208;-77
2022/11/19 05:48:26;;;;;;;0.70;0.70;;;;;;;13.24;100.00;99508.16;5031341;28;20204;-77
2022/11/19 05:50:53;;;;;;;4.22;2.25;;;;;;;12.76;100.00;99428.56;5030985;28;20196;-77
2022/11/19 05:53:20;;;;;;;0.60;0.60;;;;;;;13.24;100.00;99515.09;5030730;28;20203;-76
2022/11/19 05:55:47;;;;;;;0.60;0.60;;;;;;;13.24;100.00;99521.19;5030377;28;20622;-77
2022/11/19 05:58:13;;;;;;;0.57;0.57;;;;;;;13.26;100.00;99516.84;5030827;28;20192;-76
2022/11/19 06:00:40;;;;;;;0.55;0.55;;;;;;;13.18;100.00;99522.94;5030706;28;20628;-76
2022/11/19 06:03:09;;;;;;;0.70;0.70;;;;;;;13.19;100.00;99543.78;5030906;28;20236;-77
2022/11/19 06:05:35;;;;;;;0.88;0.88;;;;;;;13.19;100.00;99543.78;5030691;28;20680;-77
2022/11/19 06:08:02;;;;;;;0.60;0.60;;;;;;;13.25;100.00;99551.56;5030727;28;20220;-75
2022/11/19 06:10:29;;;;;;;0.70;0.70;;;;;;;13.26;100.00;99550.69;5029901;28;20211;-76
2022/11/19 06:12:56;;;;;;;0.60;0.60;;;;;;;13.43;100.00;99548.00;5030635;28;20282;-73
2022/11/19 06:15:23;;;;;;;1.65;1.60;;;;;;;13.35;100.00;99561.06;5030608;28;20712;-77
2022/11/19 06:17:49;;;;;;;0.60;0.60;;;;;;;13.28;100.00;99564.56;5030671;28;20199;-77
2022/11/19 06:20:18;;;;;;;0.52;0.52;;;;;;;13.29;100.00;99568.91;5030668;28;20551;-75
2022/11/19 06:22:44;;;;;;;0.60;0.60;;;;;;;13.00;100.00;99547.28;4995691;28;20200;-76
2022/11/19 06:25:12;;;;;;;0.60;0.60;;;;;;;13.19;100.00;99585.44;5030601;28;20203;-77
2022/11/19 06:27:39;;;;;;;1.17;1.17;;;;;;;13.20;100.00;99602.75;5030343;28;20648;-76
2022/11/19 06:30:07;;;;;;;0.93;0.93;;;;;;;13.30;100.00;99603.63;5030338;28;20695;-77
2022/11/19 06:32:34;;;;;;;0.60;0.60;;;;;;;13.35;100.00;99610.53;5030271;28;20196;-77
2022/11/19 06:35:00;;;;;;;0.60;0.60;;;;;;;13.43;100.00;99614.84;5030292;28;20703;-75
2022/11/19 06:37:29;;;;;;;0.65;0.65;;;;;;;13.54;100.00;99618.25;4995261;28;20192;-75
2022/11/19 06:39:55;;;;;;;0.70;0.70;;;;;;;13.64;100.00;99615.59;5045924;28;20203;-75
2022/11/19 06:42:37;;;;;;;1.05;1.05;;;;;;;13.55;100.00;99609.59;5047772;28;20591;-77
2022/11/19 06:45:06;;;;;;;0.60;0.60;;;;;;;13.65;100.00;99613.88;5028471;28;20195;-78
2022/11/19 06:47:33;;;;;;;0.60;0.60;;;;;;;13.65;100.00;99632.09;5050878;28;20203;-77
2022/11/19 06:50:00;;;;;;;0.60;0.60;;;;;;;13.45;100.00;99618.31;5048742;28;20199;-77
2022/11/19 06:52:29;;;;;;;0.55;0.55;;;;;;;13.47;100.00;99621.78;5049992;28;20590;-75
2022/11/19 06:54:55;;;;;;;0.60;0.60;;;;;;;13.64;100.00;99654.69;5036218;28;20203;-77
2022/11/19 06:57:22;;;;;;;0.80;0.80;;;;;;;13.57;100.00;99646.91;5050078;28;20204;-76
2022/11/19 06:59:49;;;;;;;0.70;0.70;;;;;;;13.54;100.00;99639.09;5049178;28;20203;-76
2022/11/19 07:02:16;;;;;;;0.60;0.60;;;;;;;13.69;100.00;99660.75;5050456;28;20305;-77
2022/11/19 07:04:43;;;;;;;0.80;0.80;;;;;;;13.36;100.00;99583.63;5043721;28;20238;-76
2022/11/19 07:07:10;;;;;;;0.60;0.60;;;;;;;13.85;100.00;99653.72;5048947;28;20656;-78
2022/11/19 07:09:38;;;;;;;0.60;0.60;;;;;;;13.99;100.00;99653.63;5012349;28;20211;-78
2022/11/19 07:12:06;;;;;;;0.73;0.73;;;;;;;13.77;100.00;99627.69;5013039;28;20686;-79
2022/11/19 07:14:33;;;;;;;0.68;0.68;;;;;;;13.69;100.00;99629.50;5049897;28;20627;-78
2022/11/19 07:16:59;;;;;;;0.57;0.57;;;;;;;13.82;100.00;99661.56;5049539;28;20663;-78
2022/11/19 07:19:26;;;;;;;0.70;0.70;;;;;;;14.02;100.00;99688.38;5041077;28;20211;-76
2022/11/19 07:21:53;;;;;;;1.13;1.13;;;;;;;14.04;100.00;99699.69;5049197;28;20195;-80
2022/11/19 07:24:20;;;;;;;0.60;0.60;;;;;;;13.97;100.00;99702.31;5053243;28;20204;-76
2022/11/19 07:26:48;;;;;;;0.70;0.70;;;;;;;14.15;100.00;99716.13;5034495;28;20204;-78
2022/11/19 07:29:15;;;;;;;0.73;0.73;;;;;;;14.31;100.00;99720.38;5053593;28;20812;-78
2022/11/19 07:31:42;;;;;;;0.82;0.82;;;;;;;14.21;100.00;99713.47;5053294;28;20207;-76
2022/11/19 07:34:10;;;;;;;0.60;0.60;;;;;;;14.22;100.00;99724.78;5053753;28;20203;-76
2022/11/19 07:36:38;;;;;;;0.70;0.70;;;;;;;14.14;100.00;99701.34;5053133;28;20246;-77
2022/11/19 07:39:05;;;;;;;0.60;0.60;;;;;;;14.26;100.00;99713.47;5045312;28;20207;-75
2022/11/19 07:44:17;;;;;;;4.82;1.35;;;;;;;14.32;100.00;99731.66;5048957;28;20671;-76
2022/11/19 07:46:45;;;;;;;0.50;0.50;;;;;;;14.25;100.00;99723.03;5053268;28;20222;-75
2022/11/19 07:49:12;;;;;;;0.50;0.50;;;;;;;14.50;100.00;99735.94;5053396;28;20210;-75
2022/11/19 07:51:38;;;;;;;1.15;1.15;;;;;;;14.66;100.00;99727.16;5052742;28;20203;-76
2022/11/19 07:54:08;;;;;;;0.80;0.80;;;;;;;14.68;100.00;99721.03;5034389;28;20199;-77
2022/11/19 07:56:34;;;;;;;0.57;0.57;;;;;;;14.77;100.00;99752.28;5046768;28;20318;-76
2022/11/19 07:59:01;;;;;;;0.60;0.60;;;;;;;14.39;100.00;99723.84;5053007;28;20195;-75
2022/11/19 08:01:30;;;;;;;0.65;0.65;;;;;;;14.38;100.00;99727.31;5051357;28;20702;-75
2022/11/19 08:03:57;;;;;;;0.60;0.60;;;;;;;14.44;100.00;99736.00;5052653;28;20227;-75
2022/11/19 08:06:25;;;;;;;0.60;0.60;;;;;;;14.29;100.00;99719.53;5051569;28;20579;-75
2022/11/19 08:08:52;;;;;;;0.70;0.70;;;;;;;14.34;100.00;99749.06;5052855;28;20656;-75
2022/11/19 08:11:19;;;;;;;0.60;0.60;;;;;;;14.37;100.00;99748.22;5051546;28;20443;-73
2022/11/19 08:13:45;;;;;;;0.85;0.85;;;;;;;14.51;100.00;99763.78;5051717;28;20200;-74
2022/11/19 08:18:10;;;;;;;1.05;1.05;;;;;;;14.54;100.00;99768.97;5051626;28;20218;-75
2022/11/19 08:19:05;;;;;;;0.85;0.85;;;;;;;14.65;100.00;99765.41;5050605;28;20208;-74
2022/11/19 08:21:32;;;;;;;1.40;1.40;;;;;;;14.71;100.00;99767.09;5021519;28;20243;-75
2022/11/19 08:23:59;;;;;;;0.60;0.60;;;;;;;14.59;100.00;99767.22;5044253;28;20218;-74
2022/11/19 08:26:26;;;;;;;1.00;1.00;;;;;;;14.57;100.00;99775.03;5042892;28;20699;-74
2022/11/19 08:28:53;;;;;;;0.60;0.60;;;;;;;14.55;100.00;99768.09;5047356;28;20641;-76
2022/11/19 08:31:20;;;;;;;0.70;0.70;;;;;;;14.71;100.00;99772.31;5016595;28;20222;-74
2022/11/19 08:33:47;;;;;;;0.50;0.50;;;;;;;14.71;100.00;99788.84;5049103;28;20261;-75
2022/11/19 08:36:15;;;;;;;0.60;0.60;;;;;;;14.80;100.00;99787.94;5051688;28;20227;-73
2022/11/19 08:38:42;;;;;;;0.50;0.50;;;;;;;14.87;100.00;99789.63;5052097;28;20227;-72
2022/11/19 08:43:53;;;;;;;0.50;0.50;;;;;;;14.84;100.00;99798.31;5049375;28;20213;-75
2022/11/19 08:46:20;;;;;;;0.70;0.70;;;;;;;14.66;100.00;99769.75;5022319;28;20203;-74
2022/11/19 08:48:47;;;;;;;0.60;0.60;;;;;;;14.74;100.00;99798.41;5046614;28;20286;-76
2022/11/19 08:51:15;;;;;;;1.00;1.00;;;;;;;14.99;100.00;99805.19;5046129;28;20196;-73
2022/11/19 08:53:42;;;;;;;0.68;0.68;;;;;;;14.91;100.00;99801.75;5051718;28;20675;-73
2022/11/19 08:56:10;;;;;;;0.55;0.55;;;;;;;14.92;100.00;99824.38;5049319;28;20228;-76
2022/11/19 08:58:37;;;;;;;0.60;0.60;;;;;;;15.08;99.31;99819.94;5047489;28;20199;-75
2022/11/19 09:01:09;;;;;;;0.60;0.60;;;;;;;15.18;99.43;99827.69;5051173;28;20207;-73
2022/11/19 09:03:35;;;;;;;0.60;0.60;;;;;;;14.98;96.90;99829.59;5051969;28;20255;-72
2022/11/19 09:06:02;;;;;;;0.50;0.50;;;;;;;15.12;94.55;99843.41;5016293;28;20210;-75
2022/11/19 09:08:31;;;;;;;0.60;0.60;;;;;;;15.18;90.55;99842.50;5051789;28;20207;-74
2022/11/19 09:10:57;;;;;;;0.60;0.60;;;;;;;15.21;93.25;99832.88;5050550;28;20225;-76
2022/11/19 09:13:24;;;;;;;0.52;0.52;;;;;;;15.20;96.71;99828.53;5051406;28;20218;-77
2022/11/19 09:15:51;;;;;;;0.50;0.50;;;;;;;15.47;100.00;99822.22;5051535;28;20227;-75
2022/11/19 09:18:19;;;;;;;0.50;0.50;;;;;;;15.51;94.24;99825.72;5051256;28;20221;-77
2022/11/19 09:20:45;;;;;;;0.85;0.85;;;;;;;15.38;89.40;99828.38;5049088;28;20199;-76
2022/11/19 09:23:12;;;;;;;0.60;0.60;;;;;;;15.58;86.69;99840.44;5051196;28;20203;-77
2022/11/19 09:25:41;;;;;;;0.70;0.70;;;;;;;15.75;86.03;99835.94;5046321;28;20236;-78
2022/11/19 09:28:07;;;;;;;0.60;0.60;;;;;;;15.84;85.12;99809.66;5049818;28;20655;-79
2022/11/19 09:30:34;;;;;;;0.60;0.60;;;;;;;16.18;85.36;99837.19;5050741;28;20703;-75
2022/11/19 09:33:01;;;;;;;0.50;0.50;;;;;;;16.23;86.27;99843.22;5050776;28;20214;-77
2022/11/19 09:35:28;;;;;;;0.57;0.57;;;;;;;16.02;88.22;99833.00;5051334;28;20631;-74
2022/11/19 09:37:54;;;;;;;0.50;0.50;;;;;;;15.91;87.68;99826.19;5051405;28;20207;-77
2022/11/19 09:40:22;;;;;;;0.70;0.70;;;;;;;15.82;89.34;99832.38;5049405;28;20208;-76
2022/11/19 09:43:06;;;;;;;0.60;0.60;;;;;;;15.96;90.13;99843.53;5050254;28;20202;-76
2022/11/19 09:45:48;;;;;;;0.60;0.60;;;;;;;15.94;87.95;99834.88;5051406;28;20629;-77
2022/11/19 09:48:22;;;;;;;0.50;0.50;;;;;;;16.00;85.18;99847.88;5051609;28;20202;-77
2022/11/19 09:50:53;;;;;;;0.98;0.98;;;;;;;16.04;84.72;99825.16;5051023;28;20563;-75
2022/11/19 09:53:21;;;;;;;0.60;0.60;;;;;;;16.04;84.20;99812.94;5052869;28;20219;-77
2022/11/19 09:55:52;;;;;;;0.85;0.85;;;;;;;16.22;85.10;99811.88;5034079;28;20188;-77
2022/11/19 09:58:24;;;;;;;0.50;0.50;;;;;;;16.34;84.79;99817.81;5051965;28;20200;-78
2022/11/19 10:00:51;;;;;;;0.60;0.60;;;;;;;16.30;84.84;99826.56;5054187;28;20477;-79
2022/11/19 10:03:22;;;;;;;0.50;0.50;;;;;;;16.41;83.81;99808.13;5053609;28;20258;-79
2022/11/19 10:06:01;;;;;;;0.50;0.50;;;;;;;16.34;81.52;99812.56;5054448;28;20676;-77
2022/11/19 10:08:39;;;;;;;0.55;0.55;;;;;;;16.42;80.75;99809.00;5050948;28;20231;-77
2022/11/19 10:11:19;;;;;;;0.60;0.60;;;;;;;16.22;82.28;99802.28;5051304;28;20199;-77
2022/11/19 10:13:53;;;;;;;0.60;0.60;;;;;;;16.22;83.67;99806.63;5051422;28;20671;-77
2022/11/19 10:16:39;;;;;;;0.50;0.50;;;;;;;15.94;85.45;99756.41;5050716;28;20223;-78
2022/11/19 10:19:19;;;;;;;0.50;0.50;;;;;;;16.34;83.68;99804.72;5050565;28;20199;-77
2022/11/19 10:21:53;;;;;;;0.70;0.70;;;;;;;16.20;82.79;99772.63;5050631;28;20203;-77
2022/11/19 10:24:26;;;;;;;7.32;2.35;;;;;;;16.28;83.81;99815.28;5015225;28;20199;-77
2022/11/19 10:27:00;;;;;;;0.70;0.70;;;;;;;16.22;83.14;99791.81;5048843;28;20659;-78
2022/11/19 10:29:32;;;;;;;0.57;0.57;;;;;;;16.45;82.87;99808.94;5050535;28;20203;-77
2022/11/19 10:32:20;;;;;;;0.80;0.80;;;;;;;16.48;82.62;99814.16;5050368;28;20199;-76
2022/11/19 10:34:51;;;;;;;0.50;0.50;;;;;;;16.55;82.86;99800.94;5050475;28;20758;-76
2022/11/19 10:37:20;;;;;;;0.50;0.50;;;;;;;16.87;85.63;99818.00;5050300;28;20590;-75
2022/11/19 10:39:51;;;;;;;0.60;0.60;;;;;;;16.74;84.75;99822.53;5050367;28;20199;-76
2022/11/19 10:42:22;;;;;;;0.50;0.50;;;;;;;16.76;85.73;99815.53;5050253;28;20203;-74
2022/11/19 10:44:54;;;;;;;0.65;0.65;;;;;;;16.95;85.40;99817.00;5012242;28;20203;-75
2022/11/19 10:47:28;;;;;;;0.95;0.95;;;;;;;16.82;85.28;99802.34;5049908;28;20219;-75
2022/11/19 10:49:56;;;;;;;0.70;0.70;;;;;;;16.99;85.03;99813.44;5035766;28;20436;-75
2022/11/19 10:52:29;;;;;;;0.50;0.50;;;;;;;16.96;83.42;99799.53;5049713;28;20215;-75
2022/11/19 10:55:00;;;;;;;0.52;0.52;;;;;;;16.49;81.74;99745.22;5037243;28;20199;-75
2022/11/19 10:57:31;;;;;;;0.52;0.52;;;;;;;16.79;90.07;99794.56;5053505;28;20818;-76
2022/11/19 11:00:01;;;;;;;0.60;0.60;;;;;;;16.64;79.09;99782.53;5054832;28;20203;-76
2022/11/19 11:02:33;;;;;;;0.60;0.60;;;;;;;16.95;78.04;99810.88;5042273;28;20716;-76
2022/11/19 11:05:07;;;;;;;0.50;0.50;;;;;;;16.91;77.74;99806.59;5047193;28;20238;-77
2022/11/19 11:07:48;;;;;;;0.60;0.60;;;;;;;16.91;76.23;99804.00;5046852;28;20215;-79
2022/11/19 11:10:32;;;;;;;0.60;0.60;;;;;;;16.90;76.39;99776.94;5053939;28;20197;-78
2022/11/19 11:15:54;;;;;;;0.50;0.50;;;;;;;17.01;77.67;99798.59;5053846;28;20288;-75
2022/11/19 11:18:26;;;;;;;0.60;0.60;;;;;;;16.95;78.61;99785.56;5051076;28;20727;-76
2022/11/19 11:20:53;;;;;;;0.50;0.50;;;;;;;16.84;79.85;99793.56;5032734;28;20205;-75
2022/11/19 11:23:24;;;;;;;0.80;0.80;;;;;;;16.75;80.35;99767.53;5049462;28;20579;-75
2022/11/19 11:25:54;;;;;;;0.50;0.50;;;;;;;16.88;80.85;99773.44;5053345;28;20207;-76
2022/11/19 11:28:22;;;;;;;0.60;0.60;;;;;;;17.01;80.61;99793.34;5048730;28;20203;-79
2022/11/19 11:30:54;;;;;;;1.42;1.35;;;;;;;17.06;80.96;99783.63;5054466;28;20203;-77
2022/11/19 11:33:34;;;;;;;1.42;1.35;;;;;;;17.22;78.54;99792.13;5053331;28;20215;-77
2022/11/19 11:36:05;;;;;;;0.50;0.50;;;;;;;17.25;78.06;99779.84;5053499;28;20725;-77
2022/11/19 11:38:32;;;;;;;0.60;0.60;;;;;;;17.26;77.13;99783.34;5042836;28;20227;-76
2022/11/19 11:41:04;;;;;;;0.50;0.50;;;;;;;17.25;77.41;99800.81;5043679;28;20209;-77
2022/11/19 11:43:34;;;;;;;0.50;0.50;;;;;;;17.08;78.34;99802.84;5051028;28;20199;-75
2022/11/19 11:46:06;;;;;;;0.60;0.60;;;;;;;17.01;78.41;99801.19;5051370;28;20766;-76
2022/11/19 11:48:41;;;;;;;1.45;1.45;;;;;;;16.88;79.38;99778.69;5050248;28;20208;-74
2022/11/19 11:51:08;;;;;;;0.95;0.95;;;;;;;17.23;78.76;99807.81;5043881;28;20199;-75
2022/11/19 11:53:35;;;;;;;0.60;0.60;;;;;;;17.48;86.81;99803.00;5037223;28;20208;-75
2022/11/19 11:56:03;;;;;;;0.60;0.60;;;;;;;17.41;76.15;99779.59;5048962;28;20210;-76
2022/11/19 11:58:32;;;;;;;0.52;0.52;;;;;;;17.49;72.77;99793.41;5050329;28;20220;-75